createdAt,value
2022-11-24T00:01:12.950Z,8.30
2022-11-24T00:03:40.314Z,8.40
2022-11-24T00:06:15.234Z,8.77
2022-11-24T00:08:44.949Z,8.40
2022-11-24T00:11:17.963Z,8.75
2022-11-24T00:13:45.919Z,8.77
2022-11-24T00:16:17.531Z,8.63
2022-11-24T00:18:47.711Z,7.90
2022-11-24T00:21:16.944Z,6.90
2022-11-24T00:23:44.500Z,7.78
2022-11-24T00:26:15.816Z,8.90
2022-11-24T00:28:44.578Z,8.85
2022-11-24T00:31:19.222Z,9.48
2022-11-24T00:33:47.773Z,10.75
2022-11-24T00:36:16.940Z,10.43
2022-11-24T00:38:44.483Z,10.38
2022-11-24T00:41:12.096Z,10.48
2022-11-24T00:43:39.176Z,13.38
2022-11-24T00:46:06.411Z,13.45
2022-11-24T00:48:33.781Z,16.10
2022-11-24T00:51:03.431Z,16.25
2022-11-24T00:53:30.907Z,16.52
2022-11-24T00:55:58.544Z,15.35
2022-11-24T00:58:26.308Z,16.90
2022-11-24T01:00:53.434Z,16.70
2022-11-24T01:03:21.422Z,16.65
2022-11-24T01:05:48.925Z,18.65
2022-11-24T01:08:16.204Z,19.05
2022-11-24T01:10:43.542Z,20.95
2022-11-24T01:13:12.113Z,19.98
2022-11-24T01:15:39.673Z,19.87
2022-11-24T01:18:06.975Z,19.23
2022-11-24T01:20:34.025Z,20.10
2022-11-24T01:23:00.981Z,20.02
2022-11-24T01:25:28.363Z,19.60
2022-11-24T01:27:55.340Z,21.52
2022-11-24T01:30:23.107Z,18.17
2022-11-24T01:32:50.409Z,19.67
2022-11-24T01:35:17.520Z,19.37
2022-11-24T01:37:44.496Z,22.30
2022-11-24T01:40:12.278Z,18.95
2022-11-24T01:42:51.164Z,19.45
2022-11-24T01:45:28.545Z,19.15
2022-11-24T01:47:56.147Z,19.42
2022-11-24T01:50:23.972Z,18.92
2022-11-24T01:52:54.231Z,18.62
2022-11-24T01:55:25.793Z,18.27
2022-11-24T01:58:01.321Z,20.23
2022-11-24T02:00:28.449Z,18.92
2022-11-24T02:02:58.958Z,18.20
2022-11-24T02:05:28.337Z,18.37
2022-11-24T02:07:59.713Z,19.23
2022-11-24T02:10:27.071Z,18.27
2022-11-24T02:12:58.153Z,20.35
2022-11-24T02:15:25.515Z,17.80
2022-11-24T02:17:52.836Z,19.48
2022-11-24T02:20:20.041Z,20.48
2022-11-24T02:22:57.020Z,20.52
2022-11-24T02:25:49.116Z,17.70
2022-11-24T02:28:21.161Z,21.58
2022-11-24T02:30:50.299Z,19.85
2022-11-24T02:33:18.179Z,21.42
2022-11-24T02:35:45.188Z,20.55
2022-11-24T02:38:16.330Z,20.70
2022-11-24T02:40:46.989Z,19.67
2022-11-24T02:43:19.705Z,21.55
2022-11-24T02:45:47.125Z,18.95
2022-11-24T02:48:15.670Z,18.55
2022-11-24T02:50:42.763Z,21.25
2022-11-24T02:53:09.878Z,20.50
2022-11-24T02:55:37.200Z,19.83
2022-11-24T02:58:04.360Z,19.62
2022-11-24T03:00:31.431Z,19.27
2022-11-24T03:02:58.879Z,20.73
2022-11-24T03:05:25.924Z,19.27
2022-11-24T03:07:52.968Z,19.87
2022-11-24T03:10:20.301Z,19.12
2022-11-24T03:12:47.281Z,20.50
2022-11-24T03:15:14.350Z,17.95
2022-11-24T03:17:41.817Z,19.48
2022-11-24T03:20:09.687Z,19.73
2022-11-24T03:22:37.231Z,17.50
2022-11-24T03:25:05.352Z,18.52
2022-11-24T03:27:32.666Z,19.58
2022-11-24T03:29:59.646Z,19.77
2022-11-24T03:32:27.071Z,19.08
2022-11-24T03:34:54.055Z,20.70
2022-11-24T03:37:21.120Z,17.50
2022-11-24T03:39:48.745Z,19.52
2022-11-24T03:42:16.286Z,20.40
2022-11-24T03:44:43.286Z,20.27
2022-11-24T03:47:11.636Z,20.17
2022-11-24T03:49:39.134Z,19.65
2022-11-24T03:52:08.444Z,19.25
2022-11-24T03:54:36.052Z,19.37
2022-11-24T03:57:03.257Z,18.62
2022-11-24T03:59:30.314Z,19.25
2022-11-24T04:01:57.583Z,19.27
2022-11-24T04:04:25.139Z,20.05
2022-11-24T04:06:52.282Z,21.50
2022-11-24T04:09:19.270Z,22.08
2022-11-24T04:12:05.073Z,22.48
2022-11-24T04:14:32.316Z,21.20
2022-11-24T04:16:59.870Z,21.83
2022-11-24T04:19:27.854Z,20.20
2022-11-24T04:21:55.032Z,20.48
2022-11-24T04:24:22.316Z,21.27
2022-11-24T04:26:49.335Z,21.35
2022-11-24T04:29:16.297Z,20.60
2022-11-24T04:31:43.679Z,23.15
2022-11-24T04:34:11.406Z,21.33
2022-11-24T04:36:40.998Z,22.02
2022-11-24T04:39:24.086Z,22.58
2022-11-24T04:41:53.177Z,20.62
2022-11-24T04:44:20.515Z,21.52
2022-11-24T04:46:47.623Z,26.05
2022-11-24T04:49:14.752Z,21.08
2022-11-24T04:51:42.456Z,23.38
2022-11-24T04:54:13.879Z,22.48
2022-11-24T04:56:41.761Z,22.23
2022-11-24T04:59:13.626Z,21.98
2022-11-24T05:01:45.086Z,21.67
2022-11-24T05:04:14.579Z,22.15
2022-11-24T05:06:41.924Z,21.92
2022-11-24T05:09:16.098Z,21.83
2022-11-24T05:11:44.433Z,22.42
2022-11-24T05:14:11.427Z,21.12
2022-11-24T05:16:38.455Z,22.45
2022-11-24T05:19:05.738Z,22.00
2022-11-24T05:21:32.767Z,23.62
2022-11-24T05:23:59.772Z,22.48
2022-11-24T05:26:27.466Z,22.10
2022-11-24T05:28:54.476Z,20.58
2022-11-24T05:31:21.509Z,20.40
2022-11-24T05:33:49.058Z,22.00
2022-11-24T05:36:54.483Z,20.83
2022-11-24T05:39:21.900Z,20.37
2022-11-24T05:41:48.911Z,22.45
2022-11-24T05:44:15.888Z,17.48
2022-11-24T05:46:43.231Z,21.75
2022-11-24T05:49:10.260Z,19.60
2022-11-24T05:51:37.437Z,20.67
2022-11-24T05:54:04.779Z,22.13
2022-11-24T05:56:31.767Z,20.17
2022-11-24T05:58:58.774Z,18.77
2022-11-24T06:01:26.116Z,19.95
2022-11-24T06:03:53.415Z,19.30
2022-11-24T06:06:20.495Z,17.83
2022-11-24T06:08:47.530Z,20.05
2022-11-24T06:11:17.663Z,18.80
2022-11-24T06:13:46.694Z,18.92
2022-11-24T06:16:14.894Z,21.45
2022-11-24T06:18:42.433Z,22.55
2022-11-24T06:21:11.286Z,19.98
2022-11-24T06:23:39.405Z,20.52
2022-11-24T06:26:06.926Z,19.85
2022-11-24T06:28:33.923Z,21.77
2022-11-24T06:31:05.090Z,23.15
2022-11-24T06:33:37.134Z,20.25
2022-11-24T06:36:07.367Z,20.98
2022-11-24T06:38:36.147Z,21.60
2022-11-24T06:41:06.382Z,21.27
2022-11-24T06:43:34.626Z,21.73
2022-11-24T06:46:02.679Z,22.75
2022-11-24T06:48:30.255Z,23.12
2022-11-24T06:51:02.254Z,19.42
2022-11-24T06:53:37.769Z,20.50
2022-11-24T06:56:12.161Z,22.35
2022-11-24T06:58:43.362Z,20.77
2022-11-24T07:01:17.927Z,19.80
2022-11-24T07:03:45.547Z,20.77
2022-11-24T07:06:12.630Z,19.45
2022-11-24T07:08:39.694Z,20.27
2022-11-24T07:11:08.714Z,12.48
2022-11-24T07:13:35.969Z,14.45
2022-11-24T07:16:14.779Z,14.23
2022-11-24T07:18:43.597Z,12.55
2022-11-24T07:21:11.274Z,11.40
2022-11-24T07:23:38.453Z,14.45
2022-11-24T07:26:07.709Z,16.23
2022-11-24T07:28:36.839Z,17.02
2022-11-24T07:31:08.664Z,17.45
2022-11-24T07:33:36.412Z,16.40
2022-11-24T07:36:05.292Z,15.73
2022-11-24T07:38:33.326Z,16.87
2022-11-24T07:41:10.070Z,17.65
2022-11-24T07:43:38.331Z,17.23
2022-11-24T07:46:08.583Z,17.17
2022-11-24T07:48:35.655Z,17.55
2022-11-24T07:51:04.588Z,16.90
2022-11-24T07:53:32.846Z,16.92
2022-11-24T07:56:01.827Z,16.58
2022-11-24T07:58:32.855Z,17.42
2022-11-24T08:01:09.590Z,17.33
2022-11-24T08:03:37.302Z,20.17
2022-11-24T08:08:51.736Z,19.48
2022-11-24T08:11:18.800Z,18.85
2022-11-24T08:13:46.015Z,18.23
2022-11-24T08:16:15.713Z,20.73
2022-11-24T08:18:43.733Z,21.25
2022-11-24T08:21:14.487Z,19.85
2022-11-24T08:23:42.021Z,20.90
2022-11-24T08:26:13.836Z,19.95
2022-11-24T08:28:40.908Z,19.85
2022-11-24T08:31:14.034Z,20.30
2022-11-24T08:33:41.965Z,21.33
2022-11-24T08:36:14.130Z,19.90
2022-11-24T08:38:41.834Z,20.62
2022-11-24T08:41:11.724Z,20.10
2022-11-24T08:43:39.209Z,20.85
2022-11-24T08:46:09.065Z,20.35
2022-11-24T08:48:37.161Z,22.05
2022-11-24T08:51:13.075Z,19.58
2022-11-24T08:53:40.868Z,21.25
2022-11-24T08:56:09.287Z,17.25
2022-11-24T08:58:37.346Z,17.02
2022-11-24T09:01:16.102Z,18.90
2022-11-24T09:03:50.352Z,16.77
2022-11-24T09:06:19.614Z,17.42
2022-11-24T09:08:46.926Z,17.27
2022-11-24T09:11:15.232Z,17.10
2022-11-24T09:13:43.304Z,16.67
2022-11-24T09:16:15.843Z,16.20
2022-11-24T09:18:43.228Z,15.77
2022-11-24T09:21:19.339Z,16.27
2022-11-24T09:23:48.845Z,15.30
2022-11-24T09:26:19.222Z,17.48
2022-11-24T09:28:47.176Z,16.48
2022-11-24T09:31:17.348Z,16.75
2022-11-24T09:33:45.527Z,16.65
2022-11-24T09:36:13.439Z,16.65
2022-11-24T09:38:41.194Z,17.25
2022-11-24T09:41:17.563Z,14.95
2022-11-24T09:43:58.713Z,17.05
2022-11-24T09:46:36.086Z,18.20
2022-11-24T09:49:06.151Z,14.40
2022-11-24T09:51:34.073Z,16.23
2022-11-24T09:54:09.548Z,16.60
2022-11-24T09:56:40.706Z,15.55
2022-11-24T09:59:14.233Z,15.25
2022-11-24T10:01:43.528Z,15.73
2022-11-24T10:04:27.747Z,14.73
2022-11-24T10:07:27.940Z,13.90
2022-11-24T10:09:58.805Z,13.65
2022-11-24T10:13:11.222Z,13.77
2022-11-24T10:15:56.766Z,14.20
2022-11-24T10:18:56.242Z,15.15
2022-11-24T10:22:16.001Z,15.85
2022-11-24T10:25:07.949Z,14.05
2022-11-24T10:27:44.490Z,13.70
2022-11-24T10:30:21.095Z,13.50
2022-11-24T10:32:54.184Z,13.65
2022-11-24T10:35:27.733Z,13.65
2022-11-24T10:38:06.605Z,11.23
2022-11-24T10:40:56.653Z,14.38
2022-11-24T10:43:27.974Z,13.82
2022-11-24T10:46:05.545Z,13.77
2022-11-24T10:48:40.795Z,15.65
2022-11-24T10:51:58.065Z,13.57
2022-11-24T10:54:25.428Z,15.15
2022-11-24T10:56:54.023Z,12.98
2022-11-24T10:59:27.707Z,14.18
2022-11-24T11:01:55.831Z,14.32
2022-11-24T11:04:27.842Z,15.70
2022-11-24T11:07:21.345Z,13.77
2022-11-24T11:09:49.118Z,14.95
2022-11-24T11:15:43.462Z,11.77
2022-11-24T11:18:16.472Z,12.40
2022-11-24T11:20:58.382Z,12.93
2022-11-24T11:23:28.553Z,12.73
2022-11-24T11:26:31.549Z,11.52
2022-11-24T11:34:49.256Z,10.52
2022-11-24T11:37:18.140Z,10.07
2022-11-24T11:39:50.653Z,11.05
2022-11-24T11:43:00.024Z,10.35
2022-11-24T11:45:29.342Z,9.25
2022-11-24T11:48:03.260Z,9.20
2022-11-24T11:51:06.519Z,8.95
2022-11-24T11:54:31.047Z,9.55
2022-11-24T11:57:03.829Z,9.07
2022-11-24T11:59:52.231Z,9.35
2022-11-24T12:02:19.380Z,9.23
2022-11-24T12:04:57.207Z,7.97
2022-11-24T12:07:51.993Z,8.27
2022-11-24T12:10:37.486Z,6.95
2022-11-24T12:13:04.483Z,7.62
2022-11-24T12:15:53.858Z,8.02
2022-11-24T12:18:48.520Z,7.40
2022-11-24T12:21:24.641Z,7.62
2022-11-24T12:24:21.587Z,8.18
2022-11-24T12:27:23.338Z,7.95
2022-11-24T12:30:09.633Z,7.87
2022-11-24T12:33:15.380Z,7.40
2022-11-24T12:35:48.792Z,6.05
2022-11-24T12:38:16.141Z,6.37
2022-11-24T12:41:39.689Z,6.47
2022-11-24T12:43:55.715Z,6.12
2022-11-24T12:46:34.847Z,6.25
2022-11-24T12:49:15.305Z,7.75
2022-11-24T12:51:58.125Z,7.87
2022-11-24T12:54:29.472Z,6.35
2022-11-24T12:57:15.974Z,6.15
2022-11-24T12:59:46.438Z,6.05
2022-11-24T13:02:25.853Z,5.82
2022-11-24T13:05:08.461Z,6.12
2022-11-24T13:07:56.107Z,6.35
2022-11-24T13:10:40.104Z,5.97
2022-11-24T13:13:12.569Z,5.80
2022-11-24T13:16:34.461Z,5.82
2022-11-24T13:18:51.363Z,5.80
2022-11-24T13:21:27.791Z,6.97
2022-11-24T13:23:58.431Z,6.93
2022-11-24T13:26:32.388Z,6.60
2022-11-24T13:29:13.454Z,6.80
2022-11-24T13:31:51.565Z,6.90
2022-11-24T13:34:43.313Z,6.68
2022-11-24T13:37:39.859Z,6.32
2022-11-24T13:40:13.407Z,6.80
2022-11-24T13:43:01.368Z,7.07
2022-11-24T13:45:41.646Z,6.45
2022-11-24T13:48:21.983Z,7.78
2022-11-24T13:50:49.642Z,7.62
2022-11-24T13:53:28.913Z,6.43
2022-11-24T13:56:03.453Z,6.80
2022-11-24T13:58:38.968Z,6.28
2022-11-24T14:01:26.130Z,7.45
2022-11-24T14:04:28.206Z,7.35
2022-11-24T14:06:52.259Z,7.45
2022-11-24T14:09:41.571Z,6.82
2022-11-24T14:12:15.925Z,6.97
2022-11-24T14:14:45.503Z,6.93
2022-11-24T14:17:28.621Z,7.53
2022-11-24T14:19:57.544Z,6.77
2022-11-24T14:22:31.934Z,7.82
2022-11-24T14:25:01.402Z,6.30
2022-11-24T14:27:35.901Z,6.20
2022-11-24T14:30:17.979Z,6.60
2022-11-24T14:32:59.193Z,6.45
2022-11-24T14:35:26.547Z,7.15
2022-11-24T14:37:54.131Z,6.82
2022-11-24T14:40:49.129Z,6.70
2022-11-24T14:43:33.099Z,6.40
2022-11-24T14:46:07.266Z,6.50
2022-11-24T14:48:39.775Z,5.97
2022-11-24T14:51:14.941Z,6.50
2022-11-24T14:53:44.996Z,6.57
2022-11-24T14:56:32.873Z,6.78
2022-11-24T14:59:00.820Z,7.53
2022-11-24T15:01:32.643Z,7.43
2022-11-24T15:04:26.488Z,8.65
2022-11-24T15:07:13.361Z,8.10
2022-11-24T15:09:51.794Z,7.70
2022-11-24T15:12:28.823Z,8.52
2022-11-24T15:15:18.286Z,7.78
2022-11-24T15:17:48.393Z,8.43
2022-11-24T15:20:26.863Z,8.48
2022-11-24T15:23:12.244Z,8.52
2022-11-24T15:25:39.854Z,9.20
2022-11-24T15:28:08.581Z,9.38
2022-11-24T15:30:36.800Z,8.30
2022-11-24T15:33:15.951Z,7.90
2022-11-24T15:35:43.726Z,8.75
2022-11-24T15:38:11.089Z,7.47
2022-11-24T15:40:39.402Z,8.18
2022-11-24T15:43:21.359Z,8.00
2022-11-24T15:45:48.960Z,9.52
2022-11-24T15:48:18.223Z,8.50
2022-11-24T15:50:47.012Z,7.50
2022-11-24T15:53:27.336Z,6.80
2022-11-24T15:55:56.396Z,8.75
2022-11-24T15:58:23.958Z,7.85
2022-11-24T16:00:53.466Z,7.97
2022-11-24T16:06:23.614Z,7.85
2022-11-24T16:08:51.999Z,7.50
2022-11-24T16:11:19.146Z,6.68
2022-11-24T16:13:51.945Z,7.20
2022-11-24T16:18:48.339Z,8.75
2022-11-24T16:21:15.449Z,8.57
2022-11-24T16:23:42.844Z,9.02
2022-11-24T16:26:10.212Z,8.05
2022-11-24T16:28:37.289Z,8.13
2022-11-24T16:31:04.677Z,8.38
2022-11-24T16:33:31.828Z,6.87
2022-11-24T16:35:58.858Z,8.27
2022-11-24T16:38:26.165Z,8.10
2022-11-24T16:40:54.707Z,8.93
2022-11-24T16:43:22.111Z,8.25
2022-11-24T16:46:03.188Z,8.27
2022-11-24T16:48:35.573Z,7.72
2022-11-24T16:51:13.526Z,8.07
2022-11-24T16:53:41.202Z,9.35
2022-11-24T16:56:09.196Z,11.90
2022-11-24T16:58:40.620Z,15.60
2022-11-24T17:01:12.668Z,17.67
2022-11-24T17:03:40.653Z,16.20
2022-11-24T17:06:11.438Z,12.98
2022-11-24T17:08:40.683Z,10.82
2022-11-24T17:11:10.981Z,10.60
2022-11-24T17:13:38.949Z,10.93
2022-11-24T17:16:07.611Z,9.07
2022-11-24T17:18:35.437Z,7.25
2022-11-24T17:21:07.843Z,7.47
2022-11-24T17:23:38.082Z,8.65
2022-11-24T17:26:07.599Z,9.02
2022-11-24T17:28:35.709Z,8.57
2022-11-24T17:31:29.796Z,9.32
2022-11-24T17:33:58.451Z,7.37
2022-11-24T17:36:26.803Z,8.52
2022-11-24T17:38:54.415Z,8.38
2022-11-24T17:41:22.377Z,8.18
2022-11-24T17:43:50.597Z,8.30
2022-11-24T17:46:18.185Z,8.98
2022-11-24T17:48:46.953Z,8.85
2022-11-24T17:51:16.979Z,8.25
2022-11-24T17:53:46.704Z,9.60
2022-11-24T17:56:18.381Z,8.63
2022-11-24T17:58:45.903Z,10.30
2022-11-24T18:01:13.514Z,10.57
2022-11-24T18:03:41.742Z,10.10
2022-11-24T18:06:14.065Z,10.15
2022-11-24T18:08:43.764Z,8.98
2022-11-24T18:11:18.054Z,11.00
2022-11-24T18:13:58.565Z,9.45
2022-11-24T18:16:28.322Z,9.15
2022-11-24T18:19:07.940Z,9.38
2022-11-24T18:21:38.171Z,9.30
2022-11-24T18:24:06.779Z,8.85
2022-11-24T18:26:34.339Z,9.68
2022-11-24T18:29:01.413Z,10.77
2022-11-24T18:31:29.728Z,9.82
2022-11-24T18:33:56.977Z,10.43
2022-11-24T18:36:29.979Z,10.20
2022-11-24T18:39:03.112Z,10.50
2022-11-24T18:41:30.245Z,10.18
2022-11-24T18:43:57.576Z,10.25
2022-11-24T18:46:25.201Z,11.52
2022-11-24T18:48:53.176Z,9.75
2022-11-24T18:51:22.700Z,10.93
2022-11-24T18:53:54.348Z,10.43
2022-11-24T18:56:21.794Z,10.65
2022-11-24T18:58:53.343Z,9.48
2022-11-24T19:01:26.246Z,9.75
2022-11-24T19:03:58.511Z,9.63
2022-11-24T19:06:34.506Z,11.18
2022-11-24T19:09:07.262Z,10.05
2022-11-24T19:11:37.112Z,9.57
2022-11-24T19:14:06.531Z,10.30
2022-11-24T19:16:33.962Z,10.43
2022-11-24T19:19:02.665Z,12.23
2022-11-24T19:21:31.565Z,11.10
2022-11-24T19:24:04.514Z,10.88
2022-11-24T19:29:03.406Z,10.98
2022-11-24T19:31:30.697Z,11.50
2022-11-24T19:33:59.712Z,10.68
2022-11-24T19:36:27.127Z,12.43
2022-11-24T19:38:56.219Z,11.35
2022-11-24T19:41:26.443Z,10.48
2022-11-24T19:43:53.797Z,10.98
2022-11-24T19:46:22.377Z,12.37
2022-11-24T19:48:51.135Z,11.07
2022-11-24T19:51:20.628Z,11.05
2022-11-24T19:53:48.095Z,11.35
2022-11-24T19:56:18.619Z,11.68
2022-11-24T19:58:46.498Z,12.00
2022-11-24T20:01:14.704Z,11.63
2022-11-24T20:03:43.414Z,11.48
2022-11-24T20:06:12.387Z,12.40
2022-11-24T20:08:40.491Z,12.52
2022-11-24T20:11:10.330Z,13.62
2022-11-24T20:13:39.115Z,13.85
2022-11-24T20:16:14.501Z,11.73
2022-11-24T20:18:44.834Z,12.77
2022-11-24T20:21:18.102Z,12.60
2022-11-24T20:23:46.941Z,12.68
2022-11-24T20:26:20.106Z,14.60
2022-11-24T20:28:47.642Z,13.47
2022-11-24T20:31:18.367Z,12.35
2022-11-24T20:33:46.336Z,11.82
2022-11-24T20:36:19.907Z,12.70
2022-11-24T20:38:48.034Z,11.32
2022-11-24T20:41:19.098Z,14.27
2022-11-24T20:43:47.812Z,13.50
2022-11-24T20:46:20.712Z,12.65
2022-11-24T20:48:48.336Z,12.30
2022-11-24T20:51:21.420Z,13.43
2022-11-24T20:53:55.973Z,12.27
2022-11-24T20:58:55.849Z,11.35
2022-11-24T21:01:34.888Z,13.20
2022-11-24T21:04:02.925Z,12.73
2022-11-24T21:06:30.766Z,14.57
2022-11-24T21:09:03.406Z,11.85
2022-11-24T21:11:32.363Z,11.75
2022-11-24T21:14:00.296Z,12.88
2022-11-24T21:16:30.309Z,11.75
2022-11-24T21:19:00.184Z,12.35
2022-11-24T21:21:34.561Z,12.88
2022-11-24T21:24:07.043Z,11.55
2022-11-24T21:26:38.004Z,11.90
2022-11-24T21:29:06.703Z,12.80
2022-11-24T21:31:38.345Z,13.27
2022-11-24T21:34:07.463Z,12.15
2022-11-24T21:36:35.798Z,12.93
2022-11-24T21:39:04.125Z,11.55
2022-11-24T21:41:32.977Z,12.43
2022-11-24T21:44:00.094Z,14.48
2022-11-24T21:46:29.065Z,12.32
2022-11-24T21:48:56.402Z,13.32
2022-11-24T21:51:23.568Z,13.05
2022-11-24T21:53:50.709Z,14.13
2022-11-24T21:56:20.555Z,12.75
2022-11-24T21:58:50.153Z,14.60
2022-11-24T22:01:19.290Z,12.55
2022-11-24T22:03:46.893Z,12.18
2022-11-24T22:06:15.471Z,13.02
2022-11-24T22:08:42.503Z,12.73
2022-11-24T22:11:21.687Z,12.35
2022-11-24T22:13:49.620Z,12.05
2022-11-24T22:16:19.604Z,11.75
2022-11-24T22:18:47.700Z,12.43
2022-11-24T22:21:24.074Z,13.40
2022-11-24T22:23:54.925Z,12.35
2022-11-24T22:26:24.424Z,11.98
2022-11-24T22:28:53.274Z,11.63
2022-11-24T22:31:25.885Z,11.80
2022-11-24T22:33:54.620Z,11.55
2022-11-24T22:36:24.335Z,11.57
2022-11-24T22:38:56.572Z,12.00
2022-11-24T22:41:25.008Z,12.25
2022-11-24T22:43:52.363Z,11.93
2022-11-24T22:46:22.103Z,12.68
2022-11-24T22:48:52.829Z,11.73
2022-11-24T22:51:32.414Z,13.15
2022-11-24T22:54:02.626Z,11.88
2022-11-24T22:56:32.335Z,13.43
2022-11-24T22:59:01.158Z,13.50
2022-11-24T23:01:29.335Z,14.52
2022-11-24T23:03:56.633Z,12.60
2022-11-24T23:06:26.290Z,12.73
2022-11-24T23:08:54.050Z,11.75
2022-11-24T23:11:40.873Z,13.00
2022-11-24T23:14:13.286Z,12.55
2022-11-24T23:16:40.359Z,12.60
2022-11-24T23:19:07.857Z,13.07
2022-11-24T23:21:38.350Z,13.15
2022-11-24T23:24:06.658Z,12.75
2022-11-24T23:26:40.026Z,12.40
2022-11-24T23:29:08.176Z,11.65
2022-11-24T23:31:36.268Z,11.63
2022-11-24T23:34:04.023Z,12.23
2022-11-24T23:36:32.309Z,11.55
2022-11-24T23:39:08.647Z,11.70
2022-11-24T23:41:35.750Z,12.00
2022-11-24T23:44:03.568Z,11.48
2022-11-24T23:46:31.020Z,11.00
2022-11-24T23:48:58.452Z,12.00
2022-11-24T23:51:30.943Z,12.50
2022-11-24T23:53:59.538Z,12.27
2022-11-24T23:56:32.450Z,11.18
2022-11-24T23:59:00.842Z,12.68
